sensor_id;sensor_type;location;lat;lon;timestamp;temperature;humidity
11609;DHT22;5860;52.018;8.536;2022-08-25T00:01:31;21.20;99.90
11609;DHT22;5860;52.018;8.536;2022-08-25T00:03:59;21.10;99.90
11609;DHT22;5860;52.018;8.536;2022-08-25T00:06:27;21.00;99.90
11609;DHT22;5860;52.018;8.536;2022-08-25T00:08:54;21.10;99.90
11609;DHT22;5860;52.018;8.536;2022-08-25T00:11:28;21.10;99.90
11609;DHT22;5860;52.018;8.536;2022-08-25T00:14:01;21.00;99.90
11609;DHT22;5860;52.018;8.536;2022-08-25T00:16:29;21.00;99.90
11609;DHT22;5860;52.018;8.536;2022-08-25T00:19:00;21.00;99.90
11609;DHT22;5860;52.018;8.536;2022-08-25T00:21:28;21.00;99.90
11609;DHT22;5860;52.018;8.536;2022-08-25T00:23:57;21.00;99.90
11609;DHT22;5860;52.018;8.536;2022-08-25T00:26:25;20.90;99.90
11609;DHT22;5860;52.018;8.536;2022-08-25T00:28:53;20.90;99.90
11609;DHT22;5860;52.018;8.536;2022-08-25T00:31:27;20.80;99.90
11609;DHT22;5860;52.018;8.536;2022-08-25T00:34:07;20.80;99.90
11609;DHT22;5860;52.018;8.536;2022-08-25T00:36:34;20.80;99.90
11609;DHT22;5860;52.018;8.536;2022-08-25T00:39:04;20.70;99.90
11609;DHT22;5860;52.018;8.536;2022-08-25T00:41:31;20.60;99.90
11609;DHT22;5860;52.018;8.536;2022-08-25T00:44:05;20.50;99.90
11609;DHT22;5860;52.018;8.536;2022-08-25T00:46:37;20.50;99.90
11609;DHT22;5860;52.018;8.536;2022-08-25T00:49:14;20.40;99.90
11609;DHT22;5860;52.018;8.536;2022-08-25T00:54:25;20.30;99.90
11609;DHT22;5860;52.018;8.536;2022-08-25T00:56:54;20.20;99.90
11609;DHT22;5860;52.018;8.536;2022-08-25T00:59:24;20.20;99.90
11609;DHT22;5860;52.018;8.536;2022-08-25T01:01:53;20.20;99.90
11609;DHT22;5860;52.018;8.536;2022-08-25T01:04:20;20.20;99.90
11609;DHT22;5860;52.018;8.536;2022-08-25T01:06:48;20.30;99.90
11609;DHT22;5860;52.018;8.536;2022-08-25T01:09:16;20.20;99.90
11609;DHT22;5860;52.018;8.536;2022-08-25T01:11:44;20.00;99.90
11609;DHT22;5860;52.018;8.536;2022-08-25T01:14:15;20.10;99.90
11609;DHT22;5860;52.018;8.536;2022-08-25T01:16:42;20.00;99.90
11609;DHT22;5860;52.018;8.536;2022-08-25T01:19:11;20.00;99.90
11609;DHT22;5860;52.018;8.536;2022-08-25T01:21:44;20.00;99.90
11609;DHT22;5860;52.018;8.536;2022-08-25T01:27:16;20.10;99.90
11609;DHT22;5860;52.018;8.536;2022-08-25T01:29:43;20.20;99.90
11609;DHT22;5860;52.018;8.536;2022-08-25T01:32:12;20.30;99.90
11609;DHT22;5860;52.018;8.536;2022-08-25T01:34:41;20.30;99.90
11609;DHT22;5860;52.018;8.536;2022-08-25T01:37:11;20.30;99.90
11609;DHT22;5860;52.018;8.536;2022-08-25T01:39:41;20.20;99.90
11609;DHT22;5860;52.018;8.536;2022-08-25T01:44:41;20.20;99.90
11609;DHT22;5860;52.018;8.536;2022-08-25T01:47:08;20.10;99.90
11609;DHT22;5860;52.018;8.536;2022-08-25T01:49:35;20.00;99.90
11609;DHT22;5860;52.018;8.536;2022-08-25T01:52:20;20.00;99.90
11609;DHT22;5860;52.018;8.536;2022-08-25T01:54:49;19.90;99.90
11609;DHT22;5860;52.018;8.536;2022-08-25T01:57:15;19.90;99.90
11609;DHT22;5860;52.018;8.536;2022-08-25T01:59:42;19.80;99.90
11609;DHT22;5860;52.018;8.536;2022-08-25T02:02:10;19.70;99.90
11609;DHT22;5860;52.018;8.536;2022-08-25T02:04:37;19.70;99.90
11609;DHT22;5860;52.018;8.536;2022-08-25T02:07:08;19.60;99.90
11609;DHT22;5860;52.018;8.536;2022-08-25T02:09:36;19.60;99.90
11609;DHT22;5860;52.018;8.536;2022-08-25T02:12:04;19.60;99.90
11609;DHT22;5860;52.018;8.536;2022-08-25T02:14:31;19.60;99.90
11609;DHT22;5860;52.018;8.536;2022-08-25T02:16:58;19.70;99.90
11609;DHT22;5860;52.018;8.536;2022-08-25T02:19:25;19.70;99.90
11609;DHT22;5860;52.018;8.536;2022-08-25T02:21:52;19.60;99.90
11609;DHT22;5860;52.018;8.536;2022-08-25T02:24:19;19.60;99.90
11609;DHT22;5860;52.018;8.536;2022-08-25T02:26:46;19.50;99.90
11609;DHT22;5860;52.018;8.536;2022-08-25T02:29:14;19.50;99.90
11609;DHT22;5860;52.018;8.536;2022-08-25T02:31:43;19.40;99.90
11609;DHT22;5860;52.018;8.536;2022-08-25T02:34:10;19.40;99.90
11609;DHT22;5860;52.018;8.536;2022-08-25T02:36:38;19.40;99.90
11609;DHT22;5860;52.018;8.536;2022-08-25T02:39:07;19.30;99.90
11609;DHT22;5860;52.018;8.536;2022-08-25T02:41:34;19.30;99.90
11609;DHT22;5860;52.018;8.536;2022-08-25T02:44:03;19.30;99.90
11609;DHT22;5860;52.018;8.536;2022-08-25T02:46:30;19.30;99.90
11609;DHT22;5860;52.018;8.536;2022-08-25T02:48:57;19.30;99.90
11609;DHT22;5860;52.018;8.536;2022-08-25T02:51:25;19.20;99.90
11609;DHT22;5860;52.018;8.536;2022-08-25T02:53:54;19.30;99.90
11609;DHT22;5860;52.018;8.536;2022-08-25T02:56:23;19.20;99.90
11609;DHT22;5860;52.018;8.536;2022-08-25T02:58:51;19.20;99.90
11609;DHT22;5860;52.018;8.536;2022-08-25T03:01:18;19.00;99.90
11609;DHT22;5860;52.018;8.536;2022-08-25T03:03:48;19.10;99.90
11609;DHT22;5860;52.018;8.536;2022-08-25T03:06:19;19.00;99.90
11609;DHT22;5860;52.018;8.536;2022-08-25T03:08:48;19.00;99.90
11609;DHT22;5860;52.018;8.536;2022-08-25T03:11:15;19.10;99.90
11609;DHT22;5860;52.018;8.536;2022-08-25T03:13:43;19.00;99.90
11609;DHT22;5860;52.018;8.536;2022-08-25T03:16:10;19.00;99.90
11609;DHT22;5860;52.018;8.536;2022-08-25T03:18:40;19.00;99.90
11609;DHT22;5860;52.018;8.536;2022-08-25T03:21:08;18.90;99.90
11609;DHT22;5860;52.018;8.536;2022-08-25T03:23:36;18.80;99.90
11609;DHT22;5860;52.018;8.536;2022-08-25T03:26:03;18.80;99.90
11609;DHT22;5860;52.018;8.536;2022-08-25T03:28:48;18.80;99.90
11609;DHT22;5860;52.018;8.536;2022-08-25T03:31:15;18.80;99.90
11609;DHT22;5860;52.018;8.536;2022-08-25T03:33:42;18.90;99.90
11609;DHT22;5860;52.018;8.536;2022-08-25T03:36:09;18.90;99.90
11609;DHT22;5860;52.018;8.536;2022-08-25T03:38:40;18.90;99.90
11609;DHT22;5860;52.018;8.536;2022-08-25T03:41:22;18.90;99.90
11609;DHT22;5860;52.018;8.536;2022-08-25T03:43:53;18.90;99.90
11609;DHT22;5860;52.018;8.536;2022-08-25T03:46:27;18.90;99.90
11609;DHT22;5860;52.018;8.536;2022-08-25T03:48:54;18.80;99.90
11609;DHT22;5860;52.018;8.536;2022-08-25T03:51:30;18.80;99.90
11609;DHT22;5860;52.018;8.536;2022-08-25T03:53:57;18.70;99.90
11609;DHT22;5860;52.018;8.536;2022-08-25T03:56:25;18.60;99.90
11609;DHT22;5860;52.018;8.536;2022-08-25T03:58:53;18.60;99.90
11609;DHT22;5860;52.018;8.536;2022-08-25T04:01:21;18.60;99.90
11609;DHT22;5860;52.018;8.536;2022-08-25T04:03:49;18.50;99.90
11609;DHT22;5860;52.018;8.536;2022-08-25T04:06:17;18.50;99.90
11609;DHT22;5860;52.018;8.536;2022-08-25T04:08:44;18.40;99.90
11609;DHT22;5860;52.018;8.536;2022-08-25T04:11:17;18.30;99.90
11609;DHT22;5860;52.018;8.536;2022-08-25T04:13:45;18.40;99.90
11609;DHT22;5860;52.018;8.536;2022-08-25T04:16:21;18.30;99.90
11609;DHT22;5860;52.018;8.536;2022-08-25T04:18:49;18.30;99.90
11609;DHT22;5860;52.018;8.536;2022-08-25T04:21:17;18.30;99.90
11609;DHT22;5860;52.018;8.536;2022-08-25T04:23:46;18.30;99.90
11609;DHT22;5860;52.018;8.536;2022-08-25T04:26:20;18.20;99.90
11609;DHT22;5860;52.018;8.536;2022-08-25T04:28:48;18.20;99.90
11609;DHT22;5860;52.018;8.536;2022-08-25T04:31:16;18.20;99.90
11609;DHT22;5860;52.018;8.536;2022-08-25T04:33:43;18.20;99.90
11609;DHT22;5860;52.018;8.536;2022-08-25T04:36:12;18.20;99.90
11609;DHT22;5860;52.018;8.536;2022-08-25T04:38:40;18.20;99.90
11609;DHT22;5860;52.018;8.536;2022-08-25T04:41:09;18.20;99.90
11609;DHT22;5860;52.018;8.536;2022-08-25T04:43:37;18.20;99.90
11609;DHT22;5860;52.018;8.536;2022-08-25T04:46:09;18.30;99.90
11609;DHT22;5860;52.018;8.536;2022-08-25T04:48:39;18.40;99.90
11609;DHT22;5860;52.018;8.536;2022-08-25T04:51:08;18.40;99.90
11609;DHT22;5860;52.018;8.536;2022-08-25T04:53:35;18.40;99.90
11609;DHT22;5860;52.018;8.536;2022-08-25T04:56:12;18.40;99.90
11609;DHT22;5860;52.018;8.536;2022-08-25T04:58:40;18.40;99.90
11609;DHT22;5860;52.018;8.536;2022-08-25T05:01:10;18.40;99.90
11609;DHT22;5860;52.018;8.536;2022-08-25T05:03:38;18.40;99.90
11609;DHT22;5860;52.018;8.536;2022-08-25T05:06:05;18.40;99.90
11609;DHT22;5860;52.018;8.536;2022-08-25T05:08:32;18.40;99.90
11609;DHT22;5860;52.018;8.536;2022-08-25T05:11:08;18.40;99.90
11609;DHT22;5860;52.018;8.536;2022-08-25T05:13:35;18.60;99.90
11609;DHT22;5860;52.018;8.536;2022-08-25T05:16:03;18.70;99.90
11609;DHT22;5860;52.018;8.536;2022-08-25T05:18:35;18.60;99.90
11609;DHT22;5860;52.018;8.536;2022-08-25T05:21:11;18.60;99.90
11609;DHT22;5860;52.018;8.536;2022-08-25T05:23:40;18.60;99.90
11609;DHT22;5860;52.018;8.536;2022-08-25T05:26:10;18.60;99.90
11609;DHT22;5860;52.018;8.536;2022-08-25T05:28:42;18.60;99.90
11609;DHT22;5860;52.018;8.536;2022-08-25T05:31:11;18.80;99.90
11609;DHT22;5860;52.018;8.536;2022-08-25T05:33:39;18.90;99.90
11609;DHT22;5860;52.018;8.536;2022-08-25T05:36:08;19.30;99.90
11609;DHT22;5860;52.018;8.536;2022-08-25T05:38:35;20.50;99.90
11609;DHT22;5860;52.018;8.536;2022-08-25T05:41:06;20.90;99.90
11609;DHT22;5860;52.018;8.536;2022-08-25T05:43:37;20.00;99.90
11609;DHT22;5860;52.018;8.536;2022-08-25T05:46:04;20.10;99.90
11609;DHT22;5860;52.018;8.536;2022-08-25T05:48:31;21.00;99.90
11609;DHT22;5860;52.018;8.536;2022-08-25T05:51:00;20.60;99.90
11609;DHT22;5860;52.018;8.536;2022-08-25T05:53:29;22.00;99.90
11609;DHT22;5860;52.018;8.536;2022-08-25T05:56:00;25.80;99.90
11609;DHT22;5860;52.018;8.536;2022-08-25T05:58:29;26.50;99.90
11609;DHT22;5860;52.018;8.536;2022-08-25T06:00:58;26.80;99.90
11609;DHT22;5860;52.018;8.536;2022-08-25T06:03:46;26.20;99.90
11609;DHT22;5860;52.018;8.536;2022-08-25T06:06:14;27.70;99.90
11609;DHT22;5860;52.018;8.536;2022-08-25T06:08:42;28.10;97.30
11609;DHT22;5860;52.018;8.536;2022-08-25T06:11:11;27.60;99.90
11609;DHT22;5860;52.018;8.536;2022-08-25T06:13:39;27.90;97.90
11609;DHT22;5860;52.018;8.536;2022-08-25T06:16:06;26.80;99.70
11609;DHT22;5860;52.018;8.536;2022-08-25T06:18:33;28.70;94.20
11609;DHT22;5860;52.018;8.536;2022-08-25T06:21:10;29.50;91.80
11609;DHT22;5860;52.018;8.536;2022-08-25T06:23:38;29.70;80.10
11609;DHT22;5860;52.018;8.536;2022-08-25T06:26:06;29.40;88.40
11609;DHT22;5860;52.018;8.536;2022-08-25T06:28:39;30.50;76.40
11609;DHT22;5860;52.018;8.536;2022-08-25T06:31:05;28.20;90.90
11609;DHT22;5860;52.018;8.536;2022-08-25T06:33:32;28.40;90.90
11609;DHT22;5860;52.018;8.536;2022-08-25T06:36:00;27.80;93.40
11609;DHT22;5860;52.018;8.536;2022-08-25T06:38:27;27.70;95.10
11609;DHT22;5860;52.018;8.536;2022-08-25T06:40:54;28.30;92.60
11609;DHT22;5860;52.018;8.536;2022-08-25T06:43:21;28.80;92.00
11609;DHT22;5860;52.018;8.536;2022-08-25T06:45:49;30.80;84.10
11609;DHT22;5860;52.018;8.536;2022-08-25T06:48:15;30.80;76.00
11609;DHT22;5860;52.018;8.536;2022-08-25T06:50:43;30.10;80.20
11609;DHT22;5860;52.018;8.536;2022-08-25T06:53:10;31.20;74.40
11609;DHT22;5860;52.018;8.536;2022-08-25T06:58:05;31.00;74.70
11609;DHT22;5860;52.018;8.536;2022-08-25T07:00:36;31.30;68.10
11609;DHT22;5860;52.018;8.536;2022-08-25T07:03:03;32.20;66.40
11609;DHT22;5860;52.018;8.536;2022-08-25T07:05:32;31.70;66.20
11609;DHT22;5860;52.018;8.536;2022-08-25T07:08:09;31.10;66.30
11609;DHT22;5860;52.018;8.536;2022-08-25T07:10:37;30.20;74.90
11609;DHT22;5860;52.018;8.536;2022-08-25T07:13:04;30.20;78.90
11609;DHT22;5860;52.018;8.536;2022-08-25T07:15:31;29.70;84.90
11609;DHT22;5860;52.018;8.536;2022-08-25T07:17:58;30.30;82.80
11609;DHT22;5860;52.018;8.536;2022-08-25T07:20:25;30.10;80.60
11609;DHT22;5860;52.018;8.536;2022-08-25T07:22:53;28.60;93.80
11609;DHT22;5860;52.018;8.536;2022-08-25T07:25:19;28.20;99.10
11609;DHT22;5860;52.018;8.536;2022-08-25T07:27:47;28.80;95.80
11609;DHT22;5860;52.018;8.536;2022-08-25T07:30:15;28.50;98.60
11609;DHT22;5860;52.018;8.536;2022-08-25T07:32:42;27.80;99.90
11609;DHT22;5860;52.018;8.536;2022-08-25T07:35:10;27.10;99.90
11609;DHT22;5860;52.018;8.536;2022-08-25T07:37:53;25.80;99.90
11609;DHT22;5860;52.018;8.536;2022-08-25T07:40:32;25.30;99.90
11609;DHT22;5860;52.018;8.536;2022-08-25T07:43:05;25.00;99.90
11609;DHT22;5860;52.018;8.536;2022-08-25T07:45:36;24.80;99.90
11609;DHT22;5860;52.018;8.536;2022-08-25T07:48:15;24.90;99.90
11609;DHT22;5860;52.018;8.536;2022-08-25T07:50:45;24.60;99.90
11609;DHT22;5860;52.018;8.536;2022-08-25T07:53:14;24.40;99.90
11609;DHT22;5860;52.018;8.536;2022-08-25T07:55:41;24.60;99.90
11609;DHT22;5860;52.018;8.536;2022-08-25T07:58:12;24.60;99.90
11609;DHT22;5860;52.018;8.536;2022-08-25T08:00:39;24.50;99.90
11609;DHT22;5860;52.018;8.536;2022-08-25T08:03:08;24.60;99.90
11609;DHT22;5860;52.018;8.536;2022-08-25T08:05:49;24.70;99.90
11609;DHT22;5860;52.018;8.536;2022-08-25T08:08:16;24.80;99.90
11609;DHT22;5860;52.018;8.536;2022-08-25T08:10:44;24.90;99.90
11609;DHT22;5860;52.018;8.536;2022-08-25T08:13:32;25.00;99.90
11609;DHT22;5860;52.018;8.536;2022-08-25T08:16:10;25.10;99.90
11609;DHT22;5860;52.018;8.536;2022-08-25T08:18:40;25.10;99.90
11609;DHT22;5860;52.018;8.536;2022-08-25T08:21:17;25.40;99.90
11609;DHT22;5860;52.018;8.536;2022-08-25T08:23:46;25.10;99.90
11609;DHT22;5860;52.018;8.536;2022-08-25T08:26:15;25.30;99.90
11609;DHT22;5860;52.018;8.536;2022-08-25T08:28:42;25.20;99.90
11609;DHT22;5860;52.018;8.536;2022-08-25T08:31:19;25.20;99.90
11609;DHT22;5860;52.018;8.536;2022-08-25T08:33:48;25.40;99.90
11609;DHT22;5860;52.018;8.536;2022-08-25T08:36:16;25.60;99.90
11609;DHT22;5860;52.018;8.536;2022-08-25T08:38:45;25.70;99.90
11609;DHT22;5860;52.018;8.536;2022-08-25T08:41:31;25.90;99.90
11609;DHT22;5860;52.018;8.536;2022-08-25T08:55:58;26.20;99.90
11609;DHT22;5860;52.018;8.536;2022-08-25T09:01:09;26.70;99.90
11609;DHT22;5860;52.018;8.536;2022-08-25T09:03:46;26.90;99.90
11609;DHT22;5860;52.018;8.536;2022-08-25T09:06:31;26.70;99.90
11609;DHT22;5860;52.018;8.536;2022-08-25T09:09:04;26.70;99.90
11609;DHT22;5860;52.018;8.536;2022-08-25T09:11:54;26.70;99.90
11609;DHT22;5860;52.018;8.536;2022-08-25T09:29:17;26.80;99.90
11609;DHT22;5860;52.018;8.536;2022-08-25T09:31:47;26.40;99.90
11609;DHT22;5860;52.018;8.536;2022-08-25T09:34:24;26.70;99.90
11609;DHT22;5860;52.018;8.536;2022-08-25T09:36:53;26.60;99.90
11609;DHT22;5860;52.018;8.536;2022-08-25T09:39:22;26.80;99.90
11609;DHT22;5860;52.018;8.536;2022-08-25T09:41:52;26.90;99.90
11609;DHT22;5860;52.018;8.536;2022-08-25T09:47:06;26.70;99.90
11609;DHT22;5860;52.018;8.536;2022-08-25T09:54:43;27.10;99.90
11609;DHT22;5860;52.018;8.536;2022-08-25T10:02:42;27.10;99.90
11609;DHT22;5860;52.018;8.536;2022-08-25T10:05:21;27.20;99.90
11609;DHT22;5860;52.018;8.536;2022-08-25T10:10:30;27.40;99.90
11609;DHT22;5860;52.018;8.536;2022-08-25T10:12:59;27.10;99.90
11609;DHT22;5860;52.018;8.536;2022-08-25T10:15:35;27.30;99.90
11609;DHT22;5860;52.018;8.536;2022-08-25T10:18:38;27.40;99.90
11609;DHT22;5860;52.018;8.536;2022-08-25T10:21:12;27.60;99.90
11609;DHT22;5860;52.018;8.536;2022-08-25T10:23:51;28.10;99.90
11609;DHT22;5860;52.018;8.536;2022-08-25T10:32:02;28.40;99.90
11609;DHT22;5860;52.018;8.536;2022-08-25T10:34:47;28.80;99.90
11609;DHT22;5860;52.018;8.536;2022-08-25T10:40:21;28.30;99.90
11609;DHT22;5860;52.018;8.536;2022-08-25T10:43:05;28.40;99.90
11609;DHT22;5860;52.018;8.536;2022-08-25T10:45:44;28.60;99.90
11609;DHT22;5860;52.018;8.536;2022-08-25T10:48:35;28.30;99.90
11609;DHT22;5860;52.018;8.536;2022-08-25T10:56:49;28.40;99.90
11609;DHT22;5860;52.018;8.536;2022-08-25T11:05:22;28.10;99.90
11609;DHT22;5860;52.018;8.536;2022-08-25T11:08:14;28.20;99.90
11609;DHT22;5860;52.018;8.536;2022-08-25T11:11:08;28.90;99.90
11609;DHT22;5860;52.018;8.536;2022-08-25T11:13:50;28.60;99.90
11609;DHT22;5860;52.018;8.536;2022-08-25T11:16:32;28.70;99.90
11609;DHT22;5860;52.018;8.536;2022-08-25T11:19:17;28.80;99.90
11609;DHT22;5860;52.018;8.536;2022-08-25T11:25:27;28.90;99.90
11609;DHT22;5860;52.018;8.536;2022-08-25T11:27:59;28.70;99.90
11609;DHT22;5860;52.018;8.536;2022-08-25T11:30:29;28.80;99.90
11609;DHT22;5860;52.018;8.536;2022-08-25T11:32:56;28.30;99.90
11609;DHT22;5860;52.018;8.536;2022-08-25T11:49:52;28.60;99.90
11609;DHT22;5860;52.018;8.536;2022-08-25T11:55:20;29.10;99.90
11609;DHT22;5860;52.018;8.536;2022-08-25T11:57:51;29.80;99.90
11609;DHT22;5860;52.018;8.536;2022-08-25T12:00:42;29.50;99.90
11609;DHT22;5860;52.018;8.536;2022-08-25T12:06:30;29.10;99.90
11609;DHT22;5860;52.018;8.536;2022-08-25T12:11:45;29.70;99.90
11609;DHT22;5860;52.018;8.536;2022-08-25T12:19:47;29.30;99.90
11609;DHT22;5860;52.018;8.536;2022-08-25T12:32:39;28.90;99.90
11609;DHT22;5860;52.018;8.536;2022-08-25T12:35:14;28.70;99.90
11609;DHT22;5860;52.018;8.536;2022-08-25T12:38:14;28.50;99.90
11609;DHT22;5860;52.018;8.536;2022-08-25T12:43:32;28.60;99.90
11609;DHT22;5860;52.018;8.536;2022-08-25T12:54:30;28.80;99.90
11609;DHT22;5860;52.018;8.536;2022-08-25T12:57:32;28.70;99.90
11609;DHT22;5860;52.018;8.536;2022-08-25T13:00:36;28.70;99.90
11609;DHT22;5860;52.018;8.536;2022-08-25T13:03:56;28.60;99.90
11609;DHT22;5860;52.018;8.536;2022-08-25T13:09:36;28.80;99.90
11609;DHT22;5860;52.018;8.536;2022-08-25T13:14:44;29.10;99.90
11609;DHT22;5860;52.018;8.536;2022-08-25T13:17:26;29.20;99.90
11609;DHT22;5860;52.018;8.536;2022-08-25T13:20:14;28.80;99.90
11609;DHT22;5860;52.018;8.536;2022-08-25T13:22:50;28.60;99.90
11609;DHT22;5860;52.018;8.536;2022-08-25T13:25:23;28.60;99.90
11609;DHT22;5860;52.018;8.536;2022-08-25T13:28:00;28.80;99.90
11609;DHT22;5860;52.018;8.536;2022-08-25T13:30:36;28.60;99.90
11609;DHT22;5860;52.018;8.536;2022-08-25T13:33:26;28.50;99.90
11609;DHT22;5860;52.018;8.536;2022-08-25T13:35:55;28.60;99.90
11609;DHT22;5860;52.018;8.536;2022-08-25T13:38:43;29.00;99.90
11609;DHT22;5860;52.018;8.536;2022-08-25T13:41:18;28.90;99.90
11609;DHT22;5860;52.018;8.536;2022-08-25T13:43:45;29.10;99.90
11609;DHT22;5860;52.018;8.536;2022-08-25T13:46:12;29.10;99.90
11609;DHT22;5860;52.018;8.536;2022-08-25T13:48:46;29.00;99.90
11609;DHT22;5860;52.018;8.536;2022-08-25T13:51:20;28.80;99.90
11609;DHT22;5860;52.018;8.536;2022-08-25T13:53:53;28.70;99.90
11609;DHT22;5860;52.018;8.536;2022-08-25T13:56:41;29.00;99.90
11609;DHT22;5860;52.018;8.536;2022-08-25T13:59:38;29.00;99.90
11609;DHT22;5860;52.018;8.536;2022-08-25T14:02:10;29.10;99.90
11609;DHT22;5860;52.018;8.536;2022-08-25T14:04:47;29.30;99.90
11609;DHT22;5860;52.018;8.536;2022-08-25T14:15:25;29.60;99.90
11609;DHT22;5860;52.018;8.536;2022-08-25T14:18:02;29.80;99.90
11609;DHT22;5860;52.018;8.536;2022-08-25T14:20:32;29.60;99.90
11609;DHT22;5860;52.018;8.536;2022-08-25T14:23:09;29.50;99.90
11609;DHT22;5860;52.018;8.536;2022-08-25T14:25:44;29.30;99.90
11609;DHT22;5860;52.018;8.536;2022-08-25T14:28:15;29.00;99.90
11609;DHT22;5860;52.018;8.536;2022-08-25T14:30:50;29.10;99.90
11609;DHT22;5860;52.018;8.536;2022-08-25T14:33:20;29.00;99.90
11609;DHT22;5860;52.018;8.536;2022-08-25T14:35:52;28.80;99.90
11609;DHT22;5860;52.018;8.536;2022-08-25T14:38:21;28.80;99.90
11609;DHT22;5860;52.018;8.536;2022-08-25T14:40:48;28.80;99.90
11609;DHT22;5860;52.018;8.536;2022-08-25T14:43:16;28.70;99.90
11609;DHT22;5860;52.018;8.536;2022-08-25T14:45:45;29.00;99.90
11609;DHT22;5860;52.018;8.536;2022-08-25T14:50:53;29.30;99.90
11609;DHT22;5860;52.018;8.536;2022-08-25T14:53:21;29.30;99.90
11609;DHT22;5860;52.018;8.536;2022-08-25T14:55:48;29.40;99.90
11609;DHT22;5860;52.018;8.536;2022-08-25T14:58:24;29.40;99.90
11609;DHT22;5860;52.018;8.536;2022-08-25T15:00:52;29.40;99.90
11609;DHT22;5860;52.018;8.536;2022-08-25T15:07:00;29.20;99.90
11609;DHT22;5860;52.018;8.536;2022-08-25T15:09:49;29.10;99.90
11609;DHT22;5860;52.018;8.536;2022-08-25T15:12:16;29.00;99.90
11609;DHT22;5860;52.018;8.536;2022-08-25T15:15:03;29.00;99.90
11609;DHT22;5860;52.018;8.536;2022-08-25T15:17:32;29.00;99.90
11609;DHT22;5860;52.018;8.536;2022-08-25T15:19:59;29.30;99.90
11609;DHT22;5860;52.018;8.536;2022-08-25T15:22:28;29.30;98.30
11609;DHT22;5860;52.018;8.536;2022-08-25T15:24:56;29.30;96.70
11609;DHT22;5860;52.018;8.536;2022-08-25T15:27:27;29.20;95.90
11609;DHT22;5860;52.018;8.536;2022-08-25T15:29:56;29.20;96.50
11609;DHT22;5860;52.018;8.536;2022-08-25T15:32:23;29.20;96.00
11609;DHT22;5860;52.018;8.536;2022-08-25T15:34:53;29.10;96.70
11609;DHT22;5860;52.018;8.536;2022-08-25T15:37:20;29.00;97.40
11609;DHT22;5860;52.018;8.536;2022-08-25T15:39:47;28.90;98.00
11609;DHT22;5860;52.018;8.536;2022-08-25T15:42:14;29.00;98.10
11609;DHT22;5860;52.018;8.536;2022-08-25T15:44:42;29.00;98.50
11609;DHT22;5860;52.018;8.536;2022-08-25T15:47:19;28.90;98.40
11609;DHT22;5860;52.018;8.536;2022-08-25T15:49:47;28.90;98.60
11609;DHT22;5860;52.018;8.536;2022-08-25T15:52:14;28.80;98.90
11609;DHT22;5860;52.018;8.536;2022-08-25T15:54:41;28.90;99.10
11609;DHT22;5860;52.018;8.536;2022-08-25T15:57:10;28.80;99.50
11609;DHT22;5860;52.018;8.536;2022-08-25T15:59:50;28.70;99.50
11609;DHT22;5860;52.018;8.536;2022-08-25T16:02:19;28.70;99.80
11609;DHT22;5860;52.018;8.536;2022-08-25T16:04:47;28.70;99.90
11609;DHT22;5860;52.018;8.536;2022-08-25T16:07:14;28.70;99.80
11609;DHT22;5860;52.018;8.536;2022-08-25T16:09:40;28.70;99.90
11609;DHT22;5860;52.018;8.536;2022-08-25T16:12:09;28.70;99.90
11609;DHT22;5860;52.018;8.536;2022-08-25T16:14:38;28.80;99.90
11609;DHT22;5860;52.018;8.536;2022-08-25T16:17:05;28.70;99.90
11609;DHT22;5860;52.018;8.536;2022-08-25T16:19:32;28.70;99.90
11609;DHT22;5860;52.018;8.536;2022-08-25T16:22:01;28.60;99.90
11609;DHT22;5860;52.018;8.536;2022-08-25T16:24:32;28.70;99.90
11609;DHT22;5860;52.018;8.536;2022-08-25T16:27:04;28.70;99.90
11609;DHT22;5860;52.018;8.536;2022-08-25T16:29:38;28.70;99.90
11609;DHT22;5860;52.018;8.536;2022-08-25T16:32:08;28.70;99.90
11609;DHT22;5860;52.018;8.536;2022-08-25T16:34:36;28.80;99.90
11609;DHT22;5860;52.018;8.536;2022-08-25T16:37:05;28.80;99.90
11609;DHT22;5860;52.018;8.536;2022-08-25T16:39:32;28.80;99.90
11609;DHT22;5860;52.018;8.536;2022-08-25T16:41:59;28.80;99.90
11609;DHT22;5860;52.018;8.536;2022-08-25T16:44:26;28.80;99.90
11609;DHT22;5860;52.018;8.536;2022-08-25T16:46:54;28.80;99.90
11609;DHT22;5860;52.018;8.536;2022-08-25T16:49:22;28.80;99.80
11609;DHT22;5860;52.018;8.536;2022-08-25T16:51:51;28.80;99.90
11609;DHT22;5860;52.018;8.536;2022-08-25T16:54:24;28.80;99.20
11609;DHT22;5860;52.018;8.536;2022-08-25T16:57:10;28.80;99.20
11609;DHT22;5860;52.018;8.536;2022-08-25T16:59:37;28.90;99.70
11609;DHT22;5860;52.018;8.536;2022-08-25T17:02:04;28.90;99.40
11609;DHT22;5860;52.018;8.536;2022-08-25T17:04:32;28.90;99.30
11609;DHT22;5860;52.018;8.536;2022-08-25T17:06:59;28.80;99.90
11609;DHT22;5860;52.018;8.536;2022-08-25T17:09:27;28.80;98.80
11609;DHT22;5860;52.018;8.536;2022-08-25T17:11:55;28.70;99.10
11609;DHT22;5860;52.018;8.536;2022-08-25T17:14:24;28.70;99.20
11609;DHT22;5860;52.018;8.536;2022-08-25T17:16:51;28.60;99.60
11609;DHT22;5860;52.018;8.536;2022-08-25T17:19:21;28.60;99.90
11609;DHT22;5860;52.018;8.536;2022-08-25T17:21:51;28.60;99.90
11609;DHT22;5860;52.018;8.536;2022-08-25T17:24:20;28.50;99.90
11609;DHT22;5860;52.018;8.536;2022-08-25T17:26:55;28.50;99.90
11609;DHT22;5860;52.018;8.536;2022-08-25T17:29:22;28.40;99.90
11609;DHT22;5860;52.018;8.536;2022-08-25T17:31:49;28.30;99.90
11609;DHT22;5860;52.018;8.536;2022-08-25T17:34:17;28.20;99.90
11609;DHT22;5860;52.018;8.536;2022-08-25T17:36:50;28.10;99.90
11609;DHT22;5860;52.018;8.536;2022-08-25T17:39:17;28.00;99.90
11609;DHT22;5860;52.018;8.536;2022-08-25T17:41:48;27.90;99.90
11609;DHT22;5860;52.018;8.536;2022-08-25T17:44:15;27.90;99.90
11609;DHT22;5860;52.018;8.536;2022-08-25T17:46:43;27.80;99.90
11609;DHT22;5860;52.018;8.536;2022-08-25T17:49:14;27.80;99.90
11609;DHT22;5860;52.018;8.536;2022-08-25T17:51:41;27.80;99.90
11609;DHT22;5860;52.018;8.536;2022-08-25T17:54:08;27.70;99.90
11609;DHT22;5860;52.018;8.536;2022-08-25T17:56:37;27.70;99.90
11609;DHT22;5860;52.018;8.536;2022-08-25T17:59:04;27.70;99.90
11609;DHT22;5860;52.018;8.536;2022-08-25T18:01:34;27.60;99.90
11609;DHT22;5860;52.018;8.536;2022-08-25T18:04:07;27.40;99.90
11609;DHT22;5860;52.018;8.536;2022-08-25T18:06:44;27.40;99.90
11609;DHT22;5860;52.018;8.536;2022-08-25T18:09:12;27.20;99.90
11609;DHT22;5860;52.018;8.536;2022-08-25T18:11:39;27.30;99.90
11609;DHT22;5860;52.018;8.536;2022-08-25T18:14:08;27.20;99.90
11609;DHT22;5860;52.018;8.536;2022-08-25T18:16:37;27.10;99.90
11609;DHT22;5860;52.018;8.536;2022-08-25T18:19:04;26.90;99.90
11609;DHT22;5860;52.018;8.536;2022-08-25T18:21:35;26.80;99.90
11609;DHT22;5860;52.018;8.536;2022-08-25T18:24:03;26.70;99.90
11609;DHT22;5860;52.018;8.536;2022-08-25T18:26:30;26.70;99.90
11609;DHT22;5860;52.018;8.536;2022-08-25T18:28:57;26.70;99.90
11609;DHT22;5860;52.018;8.536;2022-08-25T18:31:24;26.60;99.90
11609;DHT22;5860;52.018;8.536;2022-08-25T18:33:51;26.60;99.90
11609;DHT22;5860;52.018;8.536;2022-08-25T18:36:18;26.40;99.90
11609;DHT22;5860;52.018;8.536;2022-08-25T18:38:47;26.20;99.90
11609;DHT22;5860;52.018;8.536;2022-08-25T18:41:39;26.00;99.90